PWSweather.com
Personal Weather Stations
Station Observations
IMAZOWIE6
WarszawaPL

WarszawaPL

Lat: 52.27957, Lon: 21.05489

Elevation: 100

Station Type: WS1080

http://stacjapogody.waw.pl/

High Low Average
Temperature 87.4°F30.8°C 58.1°F14.5°C 73.9°F23.3°C
Dew Point -164.1°F-108.9°C -167.0°F-110.6°C -165.4°F-109.7°C
Winds 3.4 mph 5.5 kmh Calm Calm Calm NCalm N
Wind Gusts 5.4 mph8.7 kmh -- 1.0 mph1.6 kmh
Humidity - - -
Pressure 29.54 in1000.3 mb 29.40 in995.6 mb -
Precipitation 0.00 in0.0 mm - -
Hour Temp Dew Point Humidity Winds Wind Gusts Pressure Precip Precip Rate Daily Precip Total
12:06 AM 60.8°F16.0°C -166.7°F-110.4°C - 0.6 mph N1.0 kmh N 2.8 mph4.5 kmh 29.50 in999.0 mb 0.00 in0.0 mm 0.00 in0.0 mm 0.00 in0.0 mm
12:21 AM 60.4°F15.8°C -166.8°F-110.4°C - 0.6 mph N1.0 kmh N 2.0 mph3.2 kmh 29.50 in999.0 mb 0.00 in0.0 mm 0.00 in0.0 mm 0.00 in0.0 mm
12:36 AM 60.3°F15.7°C -166.8°F-110.4°C - 0.6 mph N1.0 kmh N 2.0 mph3.2 kmh 29.51 in999.3 mb 0.00 in0.0 mm 0.00 in0.0 mm 0.00 in0.0 mm
12:51 AM 60.1°F15.6°C -166.8°F-110.4°C - Calm Calm 1.4 mph2.3 kmh 29.51 in999.3 mb 0.00 in0.0 mm 0.00 in0.0 mm 0.00 in0.0 mm
01:06 AM 59.9°F15.5°C -166.8°F-110.4°C - Calm Calm 1.4 mph2.3 kmh 29.51 in999.3 mb 0.00 in0.0 mm 0.00 in0.0 mm 0.00 in0.0 mm
01:21 AM 59.5°F15.3°C -166.8°F-110.4°C - 0.6 mph N1.0 kmh N 2.0 mph3.2 kmh 29.51 in999.3 mb 0.00 in0.0 mm 0.00 in0.0 mm 0.00 in0.0 mm
01:36 AM 59.4°F15.2°C -166.9°F-110.5°C - 0.6 mph N1.0 kmh N 1.4 mph2.3 kmh 29.52 in999.7 mb 0.00 in0.0 mm 0.00 in0.0 mm 0.00 in0.0 mm
01:51 AM 59.2°F15.1°C -166.9°F-110.5°C - 1.4 mph N2.3 kmh N 2.0 mph3.2 kmh 29.51 in999.3 mb 0.00 in0.0 mm 0.00 in0.0 mm 0.00 in0.0 mm
02:06 AM 59.2°F15.1°C -166.9°F-110.5°C - 0.6 mph N1.0 kmh N 2.0 mph3.2 kmh 29.52 in999.7 mb 0.00 in0.0 mm 0.00 in0.0 mm 0.00 in0.0 mm
02:22 AM 59.0°F15.0°C -166.9°F-110.5°C - Calm Calm 1.4 mph2.3 kmh 29.52 in999.7 mb 0.00 in0.0 mm 0.00 in0.0 mm 0.00 in0.0 mm
02:37 AM 58.5°F14.7°C -167.0°F-110.6°C - Calm Calm 1.4 mph2.3 kmh 29.52 in999.7 mb 0.00 in0.0 mm 0.00 in0.0 mm 0.00 in0.0 mm
02:51 AM 58.5°F14.7°C -167.0°F-110.6°C - 0.6 mph N1.0 kmh N 1.4 mph2.3 kmh 29.52 in999.7 mb 0.00 in0.0 mm 0.00 in0.0 mm 0.00 in0.0 mm
03:06 AM 58.1°F14.5°C -167.0°F-110.6°C - Calm Calm 2.0 mph3.2 kmh 29.53 in1000.0 mb 0.00 in0.0 mm 0.00 in0.0 mm 0.00 in0.0 mm
03:21 AM 58.1°F14.5°C -167.0°F-110.6°C - Calm Calm 1.4 mph2.3 kmh 29.52 in999.7 mb 0.00 in0.0 mm 0.00 in0.0 mm 0.00 in0.0 mm
03:36 AM 58.1°F14.5°C -167.0°F-110.6°C - Calm Calm 0.6 mph1.0 kmh 29.52 in999.7 mb 0.00 in0.0 mm 0.00 in0.0 mm 0.00 in0.0 mm
03:51 AM 60.1°F15.6°C -166.8°F-110.4°C - Calm Calm 0.6 mph1.0 kmh 29.52 in999.7 mb 0.00 in0.0 mm 0.00 in0.0 mm 0.00 in0.0 mm
04:06 AM 61.7°F16.5°C -166.6°F-110.3°C - Calm Calm -- 29.52 in999.7 mb 0.00 in0.0 mm 0.00 in0.0 mm 0.00 in0.0 mm
04:21 AM 65.3°F18.5°C -166.3°F-110.2°C - Calm Calm -- 29.52 in999.7 mb 0.00 in0.0 mm 0.00 in0.0 mm 0.00 in0.0 mm
04:36 AM 67.8°F19.9°C -166.0°F-110.0°C - Calm Calm -- 29.52 in999.7 mb 0.00 in0.0 mm 0.00 in0.0 mm 0.00 in0.0 mm
04:51 AM 71.1°F21.7°C -165.7°F-109.8°C - Calm Calm 0.6 mph1.0 kmh 29.53 in1000.0 mb 0.00 in0.0 mm 0.00 in0.0 mm 0.00 in0.0 mm
05:06 AM 73.0°F22.8°C -165.5°F-109.7°C - Calm Calm 0.6 mph1.0 kmh 29.53 in1000.0 mb 0.00 in0.0 mm 0.00 in0.0 mm 0.00 in0.0 mm
05:21 AM 75.7°F24.3°C -165.2°F-109.6°C - Calm Calm 0.6 mph1.0 kmh 29.53 in1000.0 mb 0.00 in0.0 mm 0.00 in0.0 mm 0.00 in0.0 mm
05:36 AM 76.5°F24.7°C -165.2°F-109.6°C - Calm Calm 1.4 mph2.3 kmh 29.53 in1000.0 mb 0.00 in0.0 mm 0.00 in0.0 mm 0.00 in0.0 mm
05:51 AM 77.9°F25.5°C -165.0°F-109.4°C - Calm Calm 0.6 mph1.0 kmh 29.53 in1000.0 mb 0.00 in0.0 mm 0.00 in0.0 mm 0.00 in0.0 mm
06:06 AM 75.2°F24.0°C -165.3°F-109.6°C - Calm Calm 1.4 mph2.3 kmh 29.53 in1000.0 mb 0.00 in0.0 mm 0.00 in0.0 mm 0.00 in0.0 mm
06:21 AM 77.9°F25.5°C -165.0°F-109.4°C - Calm Calm 1.4 mph2.3 kmh 29.53 in1000.0 mb 0.00 in0.0 mm 0.00 in0.0 mm 0.00 in0.0 mm
06:36 AM 79.5°F26.4°C -164.8°F-109.3°C - 0.6 mph N1.0 kmh N 2.0 mph3.2 kmh 29.53 in1000.0 mb 0.00 in0.0 mm 0.00 in0.0 mm 0.00 in0.0 mm
06:51 AM 81.3°F27.4°C -164.7°F-109.3°C - 1.4 mph N2.3 kmh N 2.8 mph4.5 kmh 29.53 in1000.0 mb 0.00 in0.0 mm 0.00 in0.0 mm 0.00 in0.0 mm
07:06 AM 77.0°F25.0°C -165.1°F-109.5°C - 1.4 mph N2.3 kmh N 2.8 mph4.5 kmh 29.53 in1000.0 mb 0.00 in0.0 mm 0.00 in0.0 mm 0.00 in0.0 mm
07:21 AM 79.5°F26.4°C -164.8°F-109.3°C - Calm Calm 0.6 mph1.0 kmh 29.53 in1000.0 mb 0.00 in0.0 mm 0.00 in0.0 mm 0.00 in0.0 mm
07:36 AM 81.5°F27.5°C -164.7°F-109.3°C - Calm Calm 1.4 mph2.3 kmh 29.53 in1000.0 mb 0.00 in0.0 mm 0.00 in0.0 mm 0.00 in0.0 mm
07:51 AM 83.1°F28.4°C -164.5°F-109.2°C - 1.4 mph N2.3 kmh N 3.4 mph5.5 kmh 29.53 in1000.0 mb 0.00 in0.0 mm 0.00 in0.0 mm 0.00 in0.0 mm
08:06 AM 85.8°F29.9°C -164.2°F-109.0°C - 2.0 mph N3.2 kmh N 4.8 mph7.7 kmh 29.54 in1000.3 mb 0.00 in0.0 mm 0.00 in0.0 mm 0.00 in0.0 mm
08:21 AM 85.1°F29.5°C -164.3°F-109.1°C - Calm Calm 0.6 mph1.0 kmh 29.54 in1000.3 mb 0.00 in0.0 mm 0.00 in0.0 mm 0.00 in0.0 mm
08:36 AM 86.4°F30.2°C -164.2°F-109.0°C - 1.4 mph N2.3 kmh N 3.4 mph5.5 kmh 29.54 in1000.3 mb 0.00 in0.0 mm 0.00 in0.0 mm 0.00 in0.0 mm
08:51 AM 84.2°F29.0°C -164.4°F-109.1°C - 2.0 mph N3.2 kmh N 3.4 mph5.5 kmh 29.54 in1000.3 mb 0.00 in0.0 mm 0.00 in0.0 mm 0.00 in0.0 mm
09:06 AM 85.3°F29.6°C -164.3°F-109.1°C - 2.0 mph N3.2 kmh N 4.8 mph7.7 kmh 29.53 in1000.0 mb 0.00 in0.0 mm 0.00 in0.0 mm 0.00 in0.0 mm
09:21 AM 87.4°F30.8°C -164.1°F-108.9°C - 0.6 mph N1.0 kmh N 2.8 mph4.5 kmh 29.54 in1000.3 mb 0.00 in0.0 mm 0.00 in0.0 mm 0.00 in0.0 mm
09:36 AM 86.2°F30.1°C -164.2°F-109.0°C - 0.6 mph N1.0 kmh N 2.0 mph3.2 kmh 29.53 in1000.0 mb 0.00 in0.0 mm 0.00 in0.0 mm 0.00 in0.0 mm
09:51 AM 86.0°F30.0°C -164.2°F-109.0°C - Calm Calm 1.4 mph2.3 kmh 29.53 in1000.0 mb 0.00 in0.0 mm 0.00 in0.0 mm 0.00 in0.0 mm
10:06 AM 86.2°F30.1°C -164.2°F-109.0°C - 0.6 mph N1.0 kmh N 2.8 mph4.5 kmh 29.53 in1000.0 mb 0.00 in0.0 mm 0.00 in0.0 mm 0.00 in0.0 mm
10:21 AM 84.4°F29.1°C -164.4°F-109.1°C - 1.4 mph N2.3 kmh N 3.4 mph5.5 kmh 29.53 in1000.0 mb 0.00 in0.0 mm 0.00 in0.0 mm 0.00 in0.0 mm
10:36 AM 83.7°F28.7°C -164.4°F-109.1°C - Calm Calm 1.4 mph2.3 kmh 29.52 in999.7 mb 0.00 in0.0 mm 0.00 in0.0 mm 0.00 in0.0 mm
10:51 AM 82.6°F28.1°C -164.5°F-109.2°C - 0.6 mph N1.0 kmh N 2.8 mph4.5 kmh 29.53 in1000.0 mb 0.00 in0.0 mm 0.00 in0.0 mm 0.00 in0.0 mm
11:06 AM 82.0°F27.8°C -164.6°F-109.2°C - 1.4 mph N2.3 kmh N 4.0 mph6.4 kmh 29.52 in999.7 mb 0.00 in0.0 mm 0.00 in0.0 mm 0.00 in0.0 mm
11:21 AM 80.2°F26.8°C -164.8°F-109.3°C - 1.4 mph N2.3 kmh N 2.8 mph4.5 kmh 29.52 in999.7 mb 0.00 in0.0 mm 0.00 in0.0 mm 0.00 in0.0 mm
11:36 AM 80.6°F27.0°C -164.7°F-109.3°C - Calm Calm 0.6 mph1.0 kmh 29.52 in999.7 mb 0.00 in0.0 mm 0.00 in0.0 mm 0.00 in0.0 mm
11:51 AM 80.8°F27.1°C -164.7°F-109.3°C - 1.4 mph N2.3 kmh N 3.4 mph5.5 kmh 29.52 in999.7 mb 0.00 in0.0 mm 0.00 in0.0 mm 0.00 in0.0 mm
12:06 PM 80.6°F27.0°C -164.7°F-109.3°C - Calm Calm 0.6 mph1.0 kmh 29.51 in999.3 mb 0.00 in0.0 mm 0.00 in0.0 mm 0.00 in0.0 mm
12:21 PM 80.2°F26.8°C -164.8°F-109.3°C - 2.0 mph N3.2 kmh N 4.0 mph6.4 kmh 29.51 in999.3 mb 0.00 in0.0 mm 0.00 in0.0 mm 0.00 in0.0 mm
12:36 PM 80.1°F26.7°C -164.8°F-109.3°C - Calm Calm 0.6 mph1.0 kmh 29.50 in999.0 mb 0.00 in0.0 mm 0.00 in0.0 mm 0.00 in0.0 mm
12:51 PM 78.3°F25.7°C -165.0°F-109.4°C - Calm Calm 0.6 mph1.0 kmh 29.50 in999.0 mb 0.00 in0.0 mm 0.00 in0.0 mm 0.00 in0.0 mm
01:06 PM 79.5°F26.4°C -164.8°F-109.3°C - 1.4 mph N2.3 kmh N 3.4 mph5.5 kmh 29.50 in999.0 mb 0.00 in0.0 mm 0.00 in0.0 mm 0.00 in0.0 mm
01:21 PM 81.1°F27.3°C -164.7°F-109.3°C - 2.0 mph N3.2 kmh N 4.8 mph7.7 kmh 29.50 in999.0 mb 0.00 in0.0 mm 0.00 in0.0 mm 0.00 in0.0 mm
01:36 PM 81.1°F27.3°C -164.7°F-109.3°C - Calm Calm 2.0 mph3.2 kmh 29.49 in998.6 mb 0.00 in0.0 mm 0.00 in0.0 mm 0.00 in0.0 mm
01:51 PM 81.3°F27.4°C -164.7°F-109.3°C - 1.4 mph N2.3 kmh N 4.8 mph7.7 kmh 29.49 in998.6 mb 0.00 in0.0 mm 0.00 in0.0 mm 0.00 in0.0 mm
02:06 PM 79.7°F26.5°C -164.8°F-109.3°C - Calm Calm 1.4 mph2.3 kmh 29.49 in998.6 mb 0.00 in0.0 mm 0.00 in0.0 mm 0.00 in0.0 mm
02:21 PM 79.0°F26.1°C -164.9°F-109.4°C - Calm Calm 0.6 mph1.0 kmh 29.49 in998.6 mb 0.00 in0.0 mm 0.00 in0.0 mm 0.00 in0.0 mm
02:36 PM 79.3°F26.3°C -164.9°F-109.4°C - 3.4 mph N5.5 kmh N 5.4 mph8.7 kmh 29.48 in998.3 mb 0.00 in0.0 mm 0.00 in0.0 mm 0.00 in0.0 mm
02:51 PM 79.3°F26.3°C -164.9°F-109.4°C - Calm Calm 0.6 mph1.0 kmh 29.48 in998.3 mb 0.00 in0.0 mm 0.00 in0.0 mm 0.00 in0.0 mm
03:06 PM 79.0°F26.1°C -164.9°F-109.4°C - 1.4 mph N2.3 kmh N 2.8 mph4.5 kmh 29.48 in998.3 mb 0.00 in0.0 mm 0.00 in0.0 mm 0.00 in0.0 mm
03:21 PM 79.2°F26.2°C -164.9°F-109.4°C - Calm Calm 2.0 mph3.2 kmh 29.48 in998.3 mb 0.00 in0.0 mm 0.00 in0.0 mm 0.00 in0.0 mm
03:36 PM 78.8°F26.0°C -164.9°F-109.4°C - Calm Calm 2.8 mph4.5 kmh 29.48 in998.3 mb 0.00 in0.0 mm 0.00 in0.0 mm 0.00 in0.0 mm
03:51 PM 77.7°F25.4°C -165.0°F-109.4°C - Calm Calm -- 29.47 in998.0 mb 0.00 in0.0 mm 0.00 in0.0 mm 0.00 in0.0 mm
04:06 PM 77.9°F25.5°C -165.0°F-109.4°C - Calm Calm 2.0 mph3.2 kmh 29.46 in997.6 mb 0.00 in0.0 mm 0.00 in0.0 mm 0.00 in0.0 mm
04:21 PM 77.9°F25.5°C -165.0°F-109.4°C - 1.4 mph N2.3 kmh N 2.8 mph4.5 kmh 29.46 in997.6 mb 0.00 in0.0 mm 0.00 in0.0 mm 0.00 in0.0 mm
04:36 PM 78.1°F25.6°C -165.0°F-109.4°C - Calm Calm -- 29.46 in997.6 mb 0.00 in0.0 mm 0.00 in0.0 mm 0.00 in0.0 mm
04:51 PM 77.0°F25.0°C -165.1°F-109.5°C - Calm Calm -- 29.46 in997.6 mb 0.00 in0.0 mm 0.00 in0.0 mm 0.00 in0.0 mm
05:06 PM 76.5°F24.7°C -165.2°F-109.6°C - Calm Calm -- 29.45 in997.3 mb 0.00 in0.0 mm 0.00 in0.0 mm 0.00 in0.0 mm
05:21 PM 76.6°F24.8°C -165.1°F-109.5°C - Calm Calm -- 29.45 in997.3 mb 0.00 in0.0 mm 0.00 in0.0 mm 0.00 in0.0 mm
05:36 PM 76.6°F24.8°C -165.1°F-109.5°C - Calm Calm -- 29.44 in997.0 mb 0.00 in0.0 mm 0.00 in0.0 mm 0.00 in0.0 mm
05:51 PM 77.0°F25.0°C -165.1°F-109.5°C - Calm Calm 0.6 mph1.0 kmh 29.45 in997.3 mb 0.00 in0.0 mm 0.00 in0.0 mm 0.00 in0.0 mm
06:06 PM 77.0°F25.0°C -165.1°F-109.5°C - Calm Calm -- 29.44 in997.0 mb 0.00 in0.0 mm 0.00 in0.0 mm 0.00 in0.0 mm
06:21 PM 76.6°F24.8°C -165.1°F-109.5°C - Calm Calm -- 29.44 in997.0 mb 0.00 in0.0 mm 0.00 in0.0 mm 0.00 in0.0 mm
06:36 PM 75.7°F24.3°C -165.2°F-109.6°C - Calm Calm -- 29.44 in997.0 mb 0.00 in0.0 mm 0.00 in0.0 mm 0.00 in0.0 mm
06:51 PM 74.8°F23.8°C -165.3°F-109.6°C - Calm Calm -- 29.44 in997.0 mb 0.00 in0.0 mm 0.00 in0.0 mm 0.00 in0.0 mm
07:06 PM 74.5°F23.6°C -165.4°F-109.7°C - Calm Calm -- 29.44 in997.0 mb 0.00 in0.0 mm 0.00 in0.0 mm 0.00 in0.0 mm
07:21 PM 73.8°F23.2°C -165.4°F-109.7°C - Calm Calm -- 29.43 in996.6 mb 0.00 in0.0 mm 0.00 in0.0 mm 0.00 in0.0 mm
07:36 PM 73.0°F22.8°C -165.5°F-109.7°C - Calm Calm -- 29.43 in996.6 mb 0.00 in0.0 mm 0.00 in0.0 mm 0.00 in0.0 mm
07:51 PM 72.7°F22.6°C -165.5°F-109.7°C - Calm Calm -- 29.44 in997.0 mb 0.00 in0.0 mm 0.00 in0.0 mm 0.00 in0.0 mm
08:06 PM 72.5°F22.5°C -165.6°F-109.8°C - Calm Calm -- 29.43 in996.6 mb 0.00 in0.0 mm 0.00 in0.0 mm 0.00 in0.0 mm
08:21 PM 71.6°F22.0°C -165.6°F-109.8°C - Calm Calm 0.6 mph1.0 kmh 29.44 in997.0 mb 0.00 in0.0 mm 0.00 in0.0 mm 0.00 in0.0 mm
08:36 PM 71.1°F21.7°C -165.7°F-109.8°C - Calm Calm -- 29.44 in997.0 mb 0.00 in0.0 mm 0.00 in0.0 mm 0.00 in0.0 mm
08:51 PM 70.7°F21.5°C -165.7°F-109.8°C - Calm Calm 0.6 mph1.0 kmh 29.43 in996.6 mb 0.00 in0.0 mm 0.00 in0.0 mm 0.00 in0.0 mm
09:06 PM 70.2°F21.2°C -165.8°F-109.9°C - Calm Calm 1.4 mph2.3 kmh 29.43 in996.6 mb 0.00 in0.0 mm 0.00 in0.0 mm 0.00 in0.0 mm
09:21 PM 69.8°F21.0°C -165.8°F-109.9°C - Calm Calm -- 29.43 in996.6 mb 0.00 in0.0 mm 0.00 in0.0 mm 0.00 in0.0 mm
09:36 PM 69.3°F20.7°C -165.9°F-109.9°C - Calm Calm -- 29.43 in996.6 mb 0.00 in0.0 mm 0.00 in0.0 mm 0.00 in0.0 mm
09:51 PM 69.1°F20.6°C -165.9°F-109.9°C - Calm Calm 0.6 mph1.0 kmh 29.42 in996.3 mb 0.00 in0.0 mm 0.00 in0.0 mm 0.00 in0.0 mm
10:06 PM 68.7°F20.4°C -165.9°F-109.9°C - Calm Calm 0.6 mph1.0 kmh 29.43 in996.6 mb 0.00 in0.0 mm 0.00 in0.0 mm 0.00 in0.0 mm
10:21 PM 68.5°F20.3°C -165.9°F-109.9°C - Calm Calm -- 29.43 in996.6 mb 0.00 in0.0 mm 0.00 in0.0 mm 0.00 in0.0 mm
10:36 PM 68.4°F20.2°C -166.0°F-110.0°C - Calm Calm -- 29.43 in996.6 mb 0.00 in0.0 mm 0.00 in0.0 mm 0.00 in0.0 mm
10:51 PM 68.2°F20.1°C -166.0°F-110.0°C - Calm Calm -- 29.42 in996.3 mb 0.00 in0.0 mm 0.00 in0.0 mm 0.00 in0.0 mm
11:06 PM 68.2°F20.1°C -166.0°F-110.0°C - Calm Calm -- 29.42 in996.3 mb 0.00 in0.0 mm 0.00 in0.0 mm 0.00 in0.0 mm
11:21 PM 67.6°F19.8°C -166.0°F-110.0°C - Calm Calm 0.6 mph1.0 kmh 29.41 in995.9 mb 0.00 in0.0 mm 0.00 in0.0 mm 0.00 in0.0 mm
11:36 PM 67.5°F19.7°C -166.1°F-110.1°C - Calm Calm -- 29.40 in995.6 mb 0.00 in0.0 mm 0.00 in0.0 mm 0.00 in0.0 mm
11:51 PM 67.5°F19.7°C -166.1°F-110.1°C - Calm Calm 0.6 mph1.0 kmh 29.40 in995.6 mb 0.00 in0.0 mm 0.00 in0.0 mm 0.00 in0.0 mm